createdAt,value
2019-04-03T04:42:53.026Z,9.00
2019-04-03T04:45:22.300Z,8.70
2019-04-03T04:47:51.443Z,8.70
2019-04-03T04:50:25.338Z,8.60
2019-04-03T04:52:58.717Z,8.70
2019-04-03T04:55:31.247Z,8.60
2019-04-03T04:58:19.735Z,8.60
2019-04-03T05:00:49.902Z,8.50
2019-04-03T05:03:21.868Z,8.50
2019-04-03T05:05:51.186Z,8.60
2019-04-03T05:08:22.076Z,8.60
2019-04-03T05:10:51.254Z,8.80
2019-04-03T05:13:23.036Z,8.80
2019-04-03T05:15:54.181Z,8.80
2019-04-03T05:18:23.601Z,8.80
2019-04-03T05:20:52.875Z,8.70
2019-04-03T05:23:23.893Z,8.80
2019-04-03T05:25:54.004Z,8.70
2019-04-03T05:28:25.729Z,8.80
2019-04-03T05:30:54.892Z,8.80
2019-04-03T05:33:24.670Z,8.90
2019-04-03T05:35:53.827Z,8.90
2019-04-03T05:38:23.576Z,9.00
2019-04-03T05:40:56.245Z,9.10
2019-04-03T05:43:25.552Z,9.10
2019-04-03T05:45:59.826Z,9.20
2019-04-03T05:48:29.686Z,9.20
2019-04-03T05:50:59.415Z,9.30
2019-04-03T05:53:29.210Z,9.40
2019-04-03T05:55:58.691Z,9.50
2019-04-03T05:58:27.956Z,9.50
2019-04-03T06:01:04.146Z,9.50
2019-04-03T06:03:40.163Z,9.60
2019-04-03T06:05:58.931Z,9.70
2019-04-03T06:08:28.180Z,9.90
2019-04-03T06:11:02.795Z,10.10
2019-04-03T06:13:30.675Z,10.20
2019-04-03T06:15:59.864Z,10.40
2019-04-03T06:18:31.649Z,10.60
2019-04-03T06:20:59.941Z,10.80
2019-04-03T06:23:29.131Z,10.90
2019-04-03T06:26:01.010Z,11.10
2019-04-03T06:28:29.204Z,11.30
2019-04-03T06:30:58.393Z,11.60
2019-04-03T06:33:27.592Z,11.80
2019-04-03T06:35:56.763Z,11.90
2019-04-03T06:38:26.000Z,12.20
2019-04-03T06:40:55.131Z,12.30
2019-04-03T06:43:25.481Z,12.60
2019-04-03T06:45:56.985Z,12.70
2019-04-03T06:48:25.664Z,12.90
2019-04-03T06:50:54.845Z,13.00
2019-04-03T06:53:27.638Z,13.00
2019-04-03T06:55:54.981Z,13.40
2019-04-03T06:58:29.687Z,13.80
2019-04-03T07:00:57.251Z,14.10
2019-04-03T07:03:26.639Z,13.80
2019-04-03T07:05:55.962Z,13.90
2019-04-03T07:08:32.166Z,13.70
2019-04-03T07:10:56.424Z,13.70
2019-04-03T07:13:28.768Z,13.50
2019-04-03T07:15:57.183Z,13.40
2019-04-03T07:18:27.045Z,13.30
2019-04-03T07:20:56.447Z,13.10
2019-04-03T07:23:25.591Z,13.20
2019-04-03T07:25:56.491Z,13.00
2019-04-03T07:28:26.595Z,13.10
2019-04-03T07:30:55.775Z,13.10
2019-04-03T07:33:25.370Z,13.10
2019-04-03T07:35:55.013Z,13.20
2019-04-03T07:38:24.622Z,13.40
2019-04-03T07:40:54.292Z,13.90
2019-04-03T07:43:26.834Z,14.10
2019-04-03T07:45:57.163Z,14.50
2019-04-03T07:48:26.352Z,15.50
2019-04-03T07:50:57.652Z,15.70
2019-04-03T07:53:26.852Z,15.50
2019-04-03T07:55:56.051Z,15.30
2019-04-03T07:58:25.796Z,15.60
2019-04-03T08:00:55.493Z,15.40
2019-04-03T08:03:24.972Z,15.50
2019-04-03T08:05:56.255Z,16.10
2019-04-03T08:08:25.032Z,17.40
2019-04-03T08:10:54.261Z,18.40
2019-04-03T08:13:23.407Z,19.70
2019-04-03T08:15:52.629Z,20.20
2019-04-03T08:18:24.163Z,21.10
2019-04-03T08:20:56.278Z,21.50
2019-04-03T08:23:24.797Z,22.30
2019-04-03T08:25:54.800Z,22.30
2019-04-03T08:28:29.227Z,24.40
2019-04-03T08:30:56.398Z,24.70
2019-04-03T08:33:27.467Z,23.70
2019-04-03T08:35:56.658Z,24.20
2019-04-03T08:38:26.683Z,24.10
2019-04-03T08:40:57.358Z,24.20
2019-04-03T08:43:26.565Z,23.80
2019-04-03T08:45:55.817Z,25.90
2019-04-03T08:48:27.832Z,26.20
2019-04-03T08:50:58.385Z,25.30
2019-04-03T08:53:29.321Z,24.70
2019-04-03T08:55:58.695Z,25.00
2019-04-03T08:58:27.950Z,25.60
2019-04-03T09:00:57.633Z,26.10
2019-04-03T09:03:27.143Z,25.90
2019-04-03T09:05:56.518Z,25.70
2019-04-03T09:08:26.777Z,25.70
2019-04-03T09:10:56.698Z,27.00
2019-04-03T09:13:28.520Z,27.60
2019-04-03T09:15:59.720Z,27.50
2019-04-03T09:18:30.580Z,26.20
2019-04-03T09:20:59.643Z,26.10
2019-04-03T09:23:28.797Z,26.30
2019-04-03T09:25:58.371Z,26.00
2019-04-03T09:28:27.828Z,26.00
2019-04-03T09:31:06.222Z,26.30
2019-04-03T09:33:35.416Z,26.90
2019-04-03T09:36:05.287Z,26.60
2019-04-03T09:38:36.104Z,26.30
2019-04-03T09:41:05.379Z,25.70
2019-04-03T09:43:34.626Z,25.20
2019-04-03T09:46:03.824Z,25.10
2019-04-03T09:48:37.108Z,25.80
2019-04-03T09:51:09.129Z,25.80
2019-04-03T09:53:37.792Z,25.70
2019-04-03T09:56:07.924Z,25.90
2019-04-03T09:58:37.865Z,25.50
2019-04-03T10:01:15.986Z,25.80
2019-04-03T10:03:43.624Z,26.30
2019-04-03T10:06:12.898Z,26.60
2019-04-03T10:08:42.621Z,25.90
2019-04-03T10:11:14.689Z,25.90
2019-04-03T10:13:42.947Z,25.70
2019-04-03T10:16:16.388Z,26.60
2019-04-03T10:18:45.787Z,26.40
2019-04-03T10:21:14.946Z,26.40
2019-04-03T10:23:44.478Z,26.30
2019-04-03T10:26:13.700Z,26.50
2019-04-03T10:28:43.522Z,26.00
2019-04-03T10:31:13.774Z,26.50
2019-04-03T10:33:43.250Z,26.50
2019-04-03T10:36:13.175Z,27.20
2019-04-03T10:38:45.011Z,27.20
2019-04-03T10:41:15.655Z,26.70
2019-04-03T10:43:44.838Z,26.10
2019-04-03T10:46:14.261Z,25.90
2019-04-03T10:48:46.211Z,26.00
2019-04-03T10:51:15.379Z,26.10
2019-04-03T10:53:44.622Z,25.90
2019-04-03T10:56:14.418Z,24.20
2019-04-03T10:58:44.027Z,25.00
2019-04-03T11:01:13.891Z,26.30
2019-04-03T11:03:43.198Z,26.40
2019-04-03T11:06:12.399Z,26.70
2019-04-03T11:08:41.612Z,26.50
2019-04-03T11:11:10.772Z,26.90
2019-04-03T11:13:39.923Z,26.10
2019-04-03T11:16:15.076Z,26.00
2019-04-03T11:18:56.815Z,25.70
2019-04-03T11:21:15.912Z,25.20
2019-04-03T11:23:45.959Z,24.40
2019-04-03T11:26:17.672Z,24.10
2019-04-03T11:28:46.254Z,23.90
2019-04-03T11:31:26.193Z,23.80
2019-04-03T11:33:50.095Z,23.40
2019-04-03T11:36:18.080Z,22.50
2019-04-03T11:38:47.780Z,22.50
2019-04-03T11:41:19.709Z,22.80
2019-04-03T11:43:50.948Z,22.70
2019-04-03T11:46:20.736Z,22.80
2019-04-03T11:48:50.038Z,23.10
2019-04-03T11:51:19.303Z,23.30
2019-04-03T11:53:48.999Z,23.30
2019-04-03T11:56:18.587Z,22.70
2019-04-03T11:58:48.350Z,22.40
2019-04-03T12:01:19.818Z,21.80
2019-04-03T12:03:51.498Z,22.10
2019-04-03T12:06:21.156Z,22.50
2019-04-03T12:08:50.724Z,22.90
2019-04-03T12:11:20.462Z,22.50
2019-04-03T12:13:50.916Z,22.60
2019-04-03T12:16:20.090Z,22.70
2019-04-03T12:18:49.659Z,22.80
2019-04-03T12:21:19.669Z,22.40
2019-04-03T12:23:49.573Z,22.00
2019-04-03T12:26:20.752Z,22.00
2019-04-03T12:28:50.811Z,21.90
2019-04-03T12:31:21.829Z,22.10
2019-04-03T12:33:56.755Z,22.10
2019-04-03T12:36:22.802Z,22.20
2019-04-03T12:38:54.577Z,21.90
2019-04-03T12:41:23.743Z,21.40
2019-04-03T12:43:52.963Z,21.60
2019-04-03T12:46:37.318Z,21.60
2019-04-03T12:49:08.703Z,21.60
2019-04-03T12:51:38.137Z,21.70
2019-04-03T12:54:07.365Z,21.70
2019-04-03T12:56:37.013Z,22.20
2019-04-03T12:59:09.188Z,22.30
2019-04-03T13:01:37.821Z,22.10
2019-04-03T13:04:07.611Z,22.10
2019-04-03T13:06:36.847Z,21.90
2019-04-03T13:09:10.761Z,22.20
2019-04-03T13:11:40.835Z,22.30
2019-04-03T13:14:22.082Z,21.80
2019-04-03T13:16:41.891Z,21.70
2019-04-03T13:19:14.831Z,21.50
2019-04-03T13:21:43.162Z,21.10
2019-04-03T13:24:12.663Z,21.40
2019-04-03T13:26:42.740Z,21.50
2019-04-03T13:29:12.275Z,21.40
2019-04-03T13:31:47.059Z,21.30
2019-04-03T13:34:16.567Z,21.30
2019-04-03T13:36:50.474Z,21.20
2019-04-03T13:39:19.337Z,21.40
2019-04-03T13:41:49.793Z,21.30
2019-04-03T13:44:18.949Z,21.30
2019-04-03T13:46:48.242Z,21.40
2019-04-03T13:49:18.574Z,21.40
2019-04-03T13:51:48.641Z,21.30
2019-04-03T13:54:18.338Z,21.40
2019-04-03T13:56:47.858Z,21.40
2019-04-03T13:59:17.719Z,21.50
2019-04-03T14:01:50.924Z,21.50
2019-04-03T14:04:22.765Z,21.20
2019-04-03T14:06:51.673Z,21.20
2019-04-03T14:09:21.657Z,20.80
2019-04-03T14:11:51.359Z,20.80
2019-04-03T14:14:39.804Z,20.90
2019-04-03T14:17:13.044Z,20.70
2019-04-03T14:19:48.303Z,20.60
2019-04-03T14:22:17.990Z,20.40
2019-04-03T14:24:50.994Z,20.10
2019-04-03T14:27:24.242Z,20.00
2019-04-03T14:29:49.533Z,19.80
2019-04-03T14:32:20.687Z,19.80
2019-04-03T14:34:50.139Z,20.00
2019-04-03T14:37:24.479Z,20.00
2019-04-03T14:39:53.121Z,19.80
2019-04-03T14:42:24.260Z,19.70
2019-04-03T14:44:56.770Z,19.60
2019-04-03T14:47:27.913Z,19.60
2019-04-03T14:49:58.626Z,19.60
2019-04-03T14:52:31.803Z,19.50
2019-04-03T14:55:15.355Z,19.40
2019-04-03T14:57:32.332Z,19.30
2019-04-03T15:00:22.097Z,19.40
2019-04-03T15:02:34.406Z,19.40
2019-04-03T15:05:08.751Z,19.50
2019-04-03T15:07:38.618Z,19.30
2019-04-03T15:10:08.873Z,19.50
2019-04-03T15:12:39.917Z,19.60
2019-04-03T15:15:10.200Z,19.70
2019-04-03T15:17:39.941Z,19.60
2019-04-03T15:20:15.260Z,19.40
2019-04-03T15:22:45.275Z,19.20
2019-04-03T15:25:15.886Z,19.20
2019-04-03T15:27:46.022Z,19.20
2019-04-03T15:30:18.327Z,19.10
2019-04-03T15:32:48.879Z,18.90
2019-04-03T15:35:20.789Z,18.80
2019-04-03T15:37:50.411Z,18.70
2019-04-03T15:40:20.122Z,18.50
2019-04-03T15:42:54.117Z,18.30
2019-04-03T15:45:26.199Z,18.30
2019-04-03T15:47:57.673Z,18.20
2019-04-03T15:50:32.155Z,18.20
2019-04-03T15:53:00.693Z,18.10
2019-04-03T15:55:29.979Z,18.00
2019-04-03T15:57:59.364Z,18.00
2019-04-03T16:00:34.336Z,18.00
2019-04-03T16:03:02.449Z,17.80
2019-04-03T16:05:35.635Z,17.90
2019-04-03T16:08:03.001Z,17.80
2019-04-03T16:10:34.082Z,17.70
2019-04-03T16:13:04.367Z,17.70
2019-04-03T16:15:33.564Z,17.60
2019-04-03T16:18:05.914Z,17.50
2019-04-03T16:20:35.533Z,17.60
2019-04-03T16:23:06.095Z,17.50
2019-04-03T16:25:35.883Z,17.40
2019-04-03T16:28:06.800Z,17.30
2019-04-03T16:30:36.496Z,17.20
2019-04-03T16:33:18.944Z,17.10
2019-04-03T16:35:39.445Z,17.10
2019-04-03T16:38:10.944Z,17.10
2019-04-03T16:40:40.132Z,17.00
2019-04-03T16:43:09.473Z,16.90
2019-04-03T16:45:39.698Z,16.80
2019-04-03T16:48:09.251Z,16.70
2019-04-03T16:50:40.640Z,16.60
2019-04-03T16:53:10.295Z,16.50
2019-04-03T16:55:39.639Z,16.40
2019-04-03T16:58:08.967Z,16.40
2019-04-03T17:00:52.616Z,16.30
2019-04-03T17:03:09.460Z,16.20
2019-04-03T17:05:39.539Z,16.20
2019-04-03T17:08:09.097Z,16.10
2019-04-03T17:10:40.426Z,16.10
2019-04-03T17:13:11.250Z,16.10
2019-04-03T17:15:42.283Z,16.00
2019-04-03T17:18:11.973Z,16.00
2019-04-03T17:20:41.716Z,15.90
2019-04-03T17:23:12.894Z,15.90
2019-04-03T17:25:47.633Z,15.80
2019-04-03T17:28:14.024Z,15.70
2019-04-03T17:30:43.871Z,15.70
2019-04-03T17:33:13.537Z,15.70
2019-04-03T17:35:47.312Z,15.60
2019-04-03T17:38:16.354Z,15.50
2019-04-03T17:40:47.655Z,15.40
2019-04-03T17:43:17.412Z,15.30
2019-04-03T17:45:46.959Z,15.20
2019-04-03T17:48:16.697Z,15.10
2019-04-03T17:50:45.994Z,15.10
2019-04-03T17:53:15.181Z,15.00
2019-04-03T17:55:45.447Z,14.90
2019-04-03T17:58:17.464Z,14.90
2019-04-03T18:00:47.274Z,14.80
2019-04-03T18:03:19.269Z,14.70
2019-04-03T18:05:47.784Z,14.60
2019-04-03T18:08:19.935Z,14.60
2019-04-03T18:10:49.453Z,14.50
2019-04-03T18:13:19.851Z,14.40
2019-04-03T18:15:51.423Z,14.40
2019-04-03T18:18:20.661Z,14.30
2019-04-03T18:20:49.903Z,14.30
2019-04-03T18:23:22.398Z,14.30
2019-04-03T18:25:52.298Z,14.30
2019-04-03T18:28:21.468Z,14.30
2019-04-03T18:30:50.759Z,14.20
2019-04-03T18:33:21.607Z,14.20
2019-04-03T18:35:50.869Z,14.20
2019-04-03T18:38:23.081Z,14.10
2019-04-03T18:40:53.279Z,14.10
2019-04-03T18:43:22.552Z,14.00
2019-04-03T18:45:51.713Z,14.00
2019-04-03T18:48:21.551Z,14.10
2019-04-03T18:50:50.953Z,14.10
2019-04-03T18:53:22.062Z,14.10
2019-04-03T18:55:51.472Z,14.00
2019-04-03T18:58:23.554Z,14.00
2019-04-03T19:00:52.095Z,13.90
2019-04-03T19:03:21.380Z,13.90
2019-04-03T19:05:52.166Z,13.90
2019-04-03T19:08:23.240Z,13.90
2019-04-03T19:11:01.594Z,13.80
2019-04-03T19:13:23.446Z,13.70
2019-04-03T19:15:52.732Z,13.60
2019-04-03T19:18:21.942Z,13.60
2019-04-03T19:20:51.227Z,13.50
2019-04-03T19:23:23.960Z,13.40
2019-04-03T19:25:59.660Z,13.30
2019-04-03T19:28:27.586Z,13.30
2019-04-03T19:30:56.891Z,13.20
2019-04-03T19:33:26.247Z,13.20
2019-04-03T19:35:58.383Z,13.10
2019-04-03T19:38:26.404Z,13.00
2019-04-03T19:40:55.787Z,13.00
2019-04-03T19:43:24.986Z,12.90
2019-04-03T19:45:54.264Z,12.80
2019-04-03T19:48:25.393Z,12.80
2019-04-03T19:50:54.550Z,12.70
2019-04-03T19:53:23.875Z,12.70
2019-04-03T19:55:54.845Z,12.70
2019-04-03T19:58:24.009Z,12.60
2019-04-03T20:00:55.831Z,12.50
2019-04-03T20:03:25.113Z,12.40
2019-04-03T20:05:55.233Z,12.30
2019-04-03T20:08:24.734Z,12.30
2019-04-03T20:10:54.025Z,12.20
2019-04-03T20:13:23.267Z,12.20
2019-04-03T20:15:54.570Z,12.10
2019-04-03T20:18:25.840Z,12.10
2019-04-03T20:20:57.063Z,12.00
2019-04-03T20:23:26.637Z,12.00
2019-04-03T20:25:56.404Z,12.00
2019-04-03T20:28:28.779Z,11.90
2019-04-03T20:31:00.514Z,11.90
2019-04-03T20:33:30.066Z,12.00
2019-04-03T20:36:01.914Z,12.00
2019-04-03T20:38:31.164Z,12.00
2019-04-03T20:41:03.758Z,12.00
2019-04-03T20:43:33.780Z,11.90
2019-04-03T20:46:03.240Z,11.80
2019-04-03T20:48:32.504Z,11.70
2019-04-03T20:51:04.394Z,11.50
2019-04-03T20:53:33.878Z,11.10
2019-04-03T20:56:10.413Z,10.60
2019-04-03T20:58:55.156Z,10.00
2019-04-03T21:01:16.765Z,9.60
2019-04-03T21:03:45.922Z,9.30
2019-04-03T21:06:15.412Z,9.10
2019-04-03T21:08:44.567Z,8.80
2019-04-03T21:11:13.805Z,8.50
2019-04-03T21:13:43.251Z,8.30
2019-04-03T21:16:12.666Z,8.10
2019-04-03T21:18:41.857Z,7.90
2019-04-03T21:21:11.207Z,7.70
2019-04-03T21:23:40.597Z,7.50
2019-04-03T21:26:09.931Z,7.40
2019-04-03T21:28:41.008Z,7.30
2019-04-03T21:31:10.610Z,7.10
2019-04-03T21:33:39.825Z,6.90
2019-04-03T21:36:09.077Z,6.80
2019-04-03T21:38:39.833Z,6.70
2019-04-03T21:41:09.038Z,6.60
2019-04-03T21:43:38.295Z,6.50
2019-04-03T21:46:08.942Z,6.40
2019-04-03T21:48:38.671Z,6.30
2019-04-03T21:51:07.900Z,6.20
2019-04-03T21:53:38.195Z,6.10
2019-04-03T21:56:07.405Z,6.10
2019-04-03T21:58:37.878Z,6.10
